createdAt,value
2023-04-06T00:02:26.165Z,94.59
2023-04-06T00:05:32.304Z,69.52
2023-04-06T00:08:39.452Z,61.58
2023-04-06T00:11:45.392Z,58.51
2023-04-06T00:14:54.949Z,55.80
2023-04-06T00:18:00.998Z,54.90
2023-04-06T00:21:08.475Z,58.07
2023-04-06T00:24:14.396Z,55.47
2023-04-06T00:27:21.321Z,55.30
2023-04-06T00:30:29.929Z,52.80
2023-04-06T00:33:37.336Z,51.32
2023-04-06T00:36:43.371Z,49.37
2023-04-06T00:39:50.397Z,49.04
2023-04-06T00:42:56.624Z,49.22
2023-04-06T00:46:08.017Z,49.85
2023-04-06T00:49:14.095Z,49.45
2023-04-06T00:52:21.258Z,49.71
2023-04-06T00:55:28.150Z,50.61
2023-04-06T00:58:39.293Z,50.84
2023-04-06T01:01:49.810Z,52.24
2023-04-06T01:05:21.782Z,52.83
2023-04-06T01:08:32.063Z,52.47
2023-04-06T01:11:52.334Z,54.04
2023-04-06T01:15:02.789Z,54.80
2023-04-06T01:18:15.469Z,55.63
2023-04-06T01:21:31.322Z,55.45
2023-04-06T01:25:03.837Z,56.68
2023-04-06T01:28:15.491Z,58.31
2023-04-06T01:31:36.600Z,59.78
2023-04-06T01:34:42.770Z,60.03
2023-04-06T01:37:49.910Z,59.15
2023-04-06T01:41:06.542Z,58.81
2023-04-06T01:44:24.561Z,59.93
2023-04-06T01:47:43.064Z,58.26
2023-04-06T01:50:51.627Z,58.13
2023-04-06T01:54:02.955Z,58.23
2023-04-06T01:57:32.329Z,56.97
2023-04-06T02:00:48.268Z,55.71
2023-04-06T02:03:56.061Z,54.81
2023-04-06T02:07:02.066Z,56.46
2023-04-06T02:10:17.219Z,55.97
2023-04-06T02:13:27.085Z,56.69
2023-04-06T02:16:35.519Z,55.07
2023-04-06T02:19:41.870Z,58.26
2023-04-06T02:22:48.971Z,56.81
2023-04-06T02:25:54.916Z,56.55
2023-04-06T02:29:04.323Z,54.18
2023-04-06T02:32:12.484Z,55.73
2023-04-06T02:35:19.464Z,52.15
2023-04-06T02:38:29.094Z,51.87
2023-04-06T02:41:35.842Z,71.74
2023-04-06T02:44:45.595Z,81.72
2023-04-06T02:47:52.921Z,59.69
2023-04-06T02:50:58.852Z,55.70
2023-04-06T02:54:05.676Z,47.45
2023-04-06T02:57:12.411Z,44.00
2023-04-06T03:00:27.574Z,42.92
2023-04-06T03:03:33.718Z,43.35
2023-04-06T03:06:40.720Z,44.68
2023-04-06T03:10:00.399Z,49.38
2023-04-06T03:13:14.668Z,65.73
2023-04-06T03:16:42.230Z,70.57
2023-04-06T03:19:49.117Z,64.31
2023-04-06T03:22:56.644Z,72.24
2023-04-06T03:26:08.130Z,79.10
2023-04-06T03:29:14.185Z,79.89
2023-04-06T03:32:23.617Z,86.68
2023-04-06T03:35:29.715Z,88.76
2023-04-06T03:38:38.668Z,92.55
2023-04-06T03:41:54.326Z,99.23
2023-04-06T03:45:21.467Z,115.39
2023-04-06T03:48:33.676Z,125.91
2023-04-06T03:51:44.248Z,123.71
2023-04-06T03:54:50.143Z,109.45
2023-04-06T03:57:56.896Z,102.28
2023-04-06T04:01:04.216Z,101.89
2023-04-06T04:04:14.365Z,102.95
2023-04-06T04:07:20.358Z,111.96
2023-04-06T04:10:27.614Z,106.26
2023-04-06T04:13:33.648Z,106.08
2023-04-06T04:16:43.207Z,137.56
2023-04-06T04:19:54.910Z,120.20
2023-04-06T04:23:07.881Z,99.48
2023-04-06T04:26:24.659Z,101.48
2023-04-06T04:29:31.744Z,98.97
2023-04-06T04:32:42.531Z,96.77
2023-04-06T04:35:53.047Z,94.34
2023-04-06T04:39:02.473Z,94.65
2023-04-06T04:42:12.548Z,93.26
2023-04-06T04:45:26.041Z,101.25
2023-04-06T04:48:33.767Z,99.92
2023-04-06T04:51:44.993Z,107.08
2023-04-06T04:54:53.830Z,114.25
2023-04-06T04:58:07.059Z,113.29
2023-04-06T05:01:28.325Z,110.15
2023-04-06T05:04:36.196Z,105.31
2023-04-06T05:07:47.423Z,105.16
2023-04-06T05:11:06.939Z,104.20
2023-04-06T05:14:19.804Z,102.42
2023-04-06T05:17:29.720Z,100.05
2023-04-06T05:20:37.394Z,90.38
2023-04-06T05:23:46.018Z,88.25
2023-04-06T05:26:53.648Z,87.50
2023-04-06T05:30:03.497Z,88.22
2023-04-06T05:33:14.427Z,92.34
2023-04-06T05:36:35.846Z,87.84
2023-04-06T05:39:51.034Z,85.42
2023-04-06T05:42:58.864Z,86.02
2023-04-06T05:46:05.851Z,92.77
2023-04-06T05:49:12.516Z,98.67
2023-04-06T05:52:19.990Z,109.47
2023-04-06T05:55:30.864Z,118.30
2023-04-06T05:58:50.104Z,99.98
2023-04-06T06:02:02.785Z,81.20
2023-04-06T06:05:13.787Z,72.51
2023-04-06T06:08:22.052Z,67.21
2023-04-06T06:11:34.324Z,62.04
2023-04-06T06:14:41.742Z,59.16
2023-04-06T06:17:48.696Z,55.44
2023-04-06T06:21:07.594Z,53.27
2023-04-06T06:24:14.846Z,52.45
2023-04-06T06:27:23.998Z,50.06
2023-04-06T06:30:31.215Z,51.37
2023-04-06T06:33:38.324Z,54.08
2023-04-06T06:36:47.593Z,54.69
2023-04-06T06:39:55.372Z,55.20
2023-04-06T06:43:05.708Z,53.91
2023-04-06T06:46:16.656Z,52.50
2023-04-06T06:49:24.050Z,49.50
2023-04-06T06:52:30.233Z,47.63
2023-04-06T06:55:37.121Z,50.67
2023-04-06T06:58:46.421Z,43.91
2023-04-06T07:01:54.987Z,43.70
2023-04-06T07:05:01.072Z,39.78
2023-04-06T07:08:10.006Z,35.90
2023-04-06T07:11:16.004Z,37.90
2023-04-06T07:14:25.327Z,37.27
2023-04-06T07:17:31.490Z,34.51
2023-04-06T07:20:38.366Z,32.24
2023-04-06T07:23:47.922Z,30.55
2023-04-06T07:26:55.140Z,30.74
2023-04-06T07:30:05.326Z,29.84
2023-04-06T07:33:12.299Z,28.94
2023-04-06T07:36:19.534Z,26.42
2023-04-06T07:39:27.663Z,18.66
2023-04-06T07:42:36.286Z,17.25
2023-04-06T07:45:49.397Z,17.39
2023-04-06T07:49:06.350Z,17.03
2023-04-06T07:52:14.867Z,17.49
2023-04-06T07:55:22.476Z,17.20
2023-04-06T07:58:29.176Z,17.18
2023-04-06T08:01:38.052Z,18.52
2023-04-06T08:04:46.180Z,16.54
2023-04-06T08:07:52.189Z,17.39
2023-04-06T08:11:00.766Z,17.65
2023-04-06T08:14:08.320Z,18.58
2023-04-06T08:17:17.849Z,18.49
2023-04-06T08:20:26.504Z,18.13
2023-04-06T08:23:38.902Z,18.00
2023-04-06T08:26:48.421Z,18.19
2023-04-06T08:29:55.241Z,18.23
2023-04-06T08:33:15.091Z,17.47
2023-04-06T08:36:24.056Z,17.13
2023-04-06T08:39:31.999Z,17.98
2023-04-06T08:42:48.364Z,17.55
2023-04-06T08:45:54.444Z,18.93
2023-04-06T08:49:08.178Z,18.30
2023-04-06T08:52:16.083Z,17.23
2023-04-06T08:55:23.789Z,17.94
2023-04-06T08:58:40.872Z,18.83
2023-04-06T09:01:50.562Z,19.19
2023-04-06T09:04:59.943Z,18.68
2023-04-06T09:08:07.950Z,18.26
2023-04-06T09:11:15.361Z,18.34
2023-04-06T09:14:44.844Z,20.44
2023-04-06T09:17:50.872Z,21.41
2023-04-06T09:21:08.031Z,22.82
2023-04-06T09:24:16.516Z,18.24
2023-04-06T09:27:36.173Z,18.23
2023-04-06T09:30:53.309Z,20.21
2023-04-06T09:34:03.379Z,20.59
2023-04-06T09:37:24.898Z,21.72
2023-04-06T09:40:31.946Z,21.84
2023-04-06T09:43:38.011Z,20.83
2023-04-06T09:46:59.609Z,22.19
2023-04-06T09:50:09.767Z,19.94
2023-04-06T09:53:23.477Z,20.28
2023-04-06T09:56:37.781Z,23.46
2023-04-06T09:59:56.012Z,22.08
2023-04-06T10:03:12.462Z,22.49
2023-04-06T10:06:26.891Z,23.88
2023-04-06T10:09:37.426Z,24.22
2023-04-06T10:13:00.295Z,25.40
2023-04-06T10:16:08.036Z,28.72
2023-04-06T10:19:28.929Z,23.39
2023-04-06T10:22:52.125Z,21.51
2023-04-06T10:26:06.002Z,22.42
2023-04-06T10:29:13.302Z,23.31
2023-04-06T10:32:20.214Z,23.32
2023-04-06T10:35:29.029Z,25.80
2023-04-06T10:38:42.063Z,25.30
2023-04-06T10:41:53.608Z,24.38
2023-04-06T10:45:01.024Z,29.67
2023-04-06T10:48:20.046Z,25.31
2023-04-06T10:51:32.262Z,22.89
2023-04-06T10:54:43.167Z,22.26
2023-04-06T10:57:59.959Z,22.98
2023-04-06T11:01:21.545Z,22.08
2023-04-06T11:04:29.500Z,21.84
2023-04-06T11:07:35.507Z,24.21
2023-04-06T11:10:42.302Z,24.97
2023-04-06T11:13:54.598Z,21.76
2023-04-06T11:17:01.443Z,19.93
2023-04-06T11:20:16.502Z,25.76
2023-04-06T11:23:29.655Z,21.35
2023-04-06T11:26:35.887Z,23.66
2023-04-06T11:29:47.236Z,23.59
2023-04-06T11:32:53.478Z,21.19
2023-04-06T11:36:02.211Z,19.47
2023-04-06T11:39:08.498Z,20.05
2023-04-06T11:42:16.605Z,20.87
2023-04-06T11:45:25.614Z,22.84
2023-04-06T11:48:32.825Z,20.09
2023-04-06T11:51:41.372Z,23.22
2023-04-06T11:54:50.075Z,22.17
2023-04-06T11:57:56.072Z,20.03
2023-04-06T12:01:10.731Z,22.69
2023-04-06T12:04:16.718Z,22.95
2023-04-06T12:07:23.565Z,19.54
2023-04-06T12:10:29.564Z,21.50
2023-04-06T12:13:36.356Z,19.76
2023-04-06T12:16:45.428Z,18.61
2023-04-06T12:19:52.166Z,16.47
2023-04-06T12:23:00.928Z,16.69
2023-04-06T12:26:12.951Z,15.21
2023-04-06T12:29:19.418Z,15.23
2023-04-06T12:32:28.937Z,19.03
2023-04-06T12:35:42.834Z,17.53
2023-04-06T12:38:55.968Z,23.83
2023-04-06T12:42:02.806Z,27.00
2023-04-06T12:45:13.485Z,25.88
2023-04-06T12:48:22.592Z,28.30
2023-04-06T12:51:32.400Z,28.96
2023-04-06T12:54:38.434Z,19.02
2023-04-06T12:57:45.328Z,15.64
2023-04-06T13:00:51.945Z,17.08
2023-04-06T13:04:05.006Z,16.06
2023-04-06T13:07:11.121Z,15.89
2023-04-06T13:10:18.098Z,17.10
2023-04-06T13:13:28.600Z,16.23
2023-04-06T13:16:35.429Z,17.54
2023-04-06T13:19:43.998Z,19.36
2023-04-06T13:22:50.676Z,23.95
2023-04-06T13:26:04.440Z,19.35
2023-04-06T13:29:11.604Z,18.52
2023-04-06T13:32:17.454Z,19.06
2023-04-06T13:35:27.591Z,16.73
2023-04-06T13:38:34.907Z,22.01
2023-04-06T13:41:41.662Z,22.50
2023-04-06T13:44:52.012Z,22.85
2023-04-06T13:47:58.775Z,22.42
2023-04-06T13:51:15.870Z,21.38
2023-04-06T13:54:23.877Z,23.07
2023-04-06T13:57:30.979Z,24.47
2023-04-06T14:00:43.294Z,24.05
2023-04-06T14:03:50.007Z,25.02
2023-04-06T14:06:59.758Z,25.87
2023-04-06T14:10:14.873Z,26.72
2023-04-06T14:13:21.847Z,30.46
2023-04-06T14:16:28.809Z,30.15
2023-04-06T14:19:37.399Z,32.40
2023-04-06T14:22:46.374Z,30.25
2023-04-06T14:25:53.115Z,35.66
2023-04-06T14:28:59.116Z,38.01
2023-04-06T14:32:05.816Z,35.84
2023-04-06T14:35:14.276Z,41.47
2023-04-06T14:38:23.674Z,45.32
2023-04-06T14:41:29.530Z,38.80
2023-04-06T14:44:38.488Z,31.53
2023-04-06T14:47:44.419Z,28.69
2023-04-06T14:50:57.726Z,26.61
2023-04-06T14:54:16.451Z,27.36
2023-04-06T14:57:23.220Z,25.81
2023-04-06T15:00:29.344Z,27.52
2023-04-06T15:03:39.148Z,30.51
2023-04-06T15:06:45.084Z,31.38
2023-04-06T15:09:54.660Z,29.26
2023-04-06T15:13:00.702Z,28.61
2023-04-06T15:16:09.021Z,35.84
2023-04-06T15:19:15.377Z,30.40
2023-04-06T15:22:24.884Z,27.88
2023-04-06T15:25:36.087Z,30.31
2023-04-06T15:28:43.270Z,36.36
2023-04-06T15:31:49.753Z,35.76
2023-04-06T15:35:09.053Z,29.11
2023-04-06T15:38:26.234Z,28.90
2023-04-06T15:41:40.576Z,32.02
2023-04-06T15:44:46.835Z,28.96
2023-04-06T15:47:54.193Z,30.89
2023-04-06T15:51:01.829Z,28.39
2023-04-06T15:54:09.696Z,30.96
2023-04-06T15:57:26.618Z,30.43
2023-04-06T16:00:33.786Z,29.68
2023-04-06T16:03:40.035Z,30.36
2023-04-06T16:06:46.839Z,33.91
2023-04-06T16:09:56.855Z,36.61
2023-04-06T16:13:06.343Z,38.73
2023-04-06T16:16:13.034Z,36.56
2023-04-06T16:19:21.783Z,33.08
2023-04-06T16:22:29.001Z,32.62
2023-04-06T16:25:35.901Z,34.01
2023-04-06T16:28:44.585Z,37.61
2023-04-06T16:31:51.402Z,36.04
2023-04-06T16:34:57.619Z,36.18
2023-04-06T16:38:04.618Z,37.86
2023-04-06T16:41:17.445Z,40.72
2023-04-06T16:44:27.506Z,37.95
2023-04-06T16:47:33.459Z,35.13
2023-04-06T16:50:40.254Z,31.96
2023-04-06T16:53:47.754Z,30.11
2023-04-06T16:56:54.669Z,31.59
2023-04-06T17:00:05.763Z,32.60
2023-04-06T17:03:19.102Z,30.23
2023-04-06T17:06:26.016Z,28.82
2023-04-06T17:12:59.946Z,28.99
2023-04-06T17:16:10.339Z,26.50
2023-04-06T17:19:16.492Z,27.93
2023-04-06T17:22:24.613Z,28.46
2023-04-06T17:25:35.936Z,29.33
2023-04-06T17:28:42.776Z,31.54
2023-04-06T17:31:54.058Z,29.66
2023-04-06T17:35:00.822Z,28.04
2023-04-06T17:38:08.519Z,29.23
2023-04-06T17:41:17.512Z,28.38
2023-04-06T17:44:24.545Z,29.42
2023-04-06T17:47:36.374Z,31.04
2023-04-06T17:50:47.274Z,30.70
2023-04-06T17:53:55.078Z,29.69
2023-04-06T17:57:02.163Z,29.50
2023-04-06T18:00:12.497Z,31.39
2023-04-06T18:03:23.417Z,32.51
2023-04-06T18:06:33.122Z,33.77
2023-04-06T18:09:46.542Z,35.66
2023-04-06T18:12:54.119Z,34.71
2023-04-06T18:16:10.136Z,40.66
2023-04-06T18:19:19.656Z,47.17
2023-04-06T18:22:25.604Z,51.71
2023-04-06T18:25:35.050Z,47.92
2023-04-06T18:28:41.028Z,41.89
2023-04-06T18:31:50.854Z,43.43
2023-04-06T18:35:00.949Z,42.02
2023-04-06T18:38:08.045Z,41.06
2023-04-06T18:41:16.583Z,41.37
2023-04-06T18:44:26.832Z,38.69
2023-04-06T18:47:32.858Z,37.20
2023-04-06T18:50:42.275Z,34.75
2023-04-06T18:53:51.187Z,36.46
2023-04-06T18:56:58.308Z,41.37
2023-04-06T19:00:13.979Z,41.65
2023-04-06T19:03:22.433Z,42.98
2023-04-06T19:06:31.510Z,49.48
2023-04-06T19:09:43.322Z,46.12
2023-04-06T19:12:50.019Z,44.13
2023-04-06T19:15:57.319Z,47.24
2023-04-06T19:19:03.935Z,47.86
2023-04-06T19:22:15.274Z,45.53
2023-04-06T19:25:22.303Z,47.13
2023-04-06T19:28:29.283Z,48.14
2023-04-06T19:31:45.128Z,51.64
2023-04-06T19:34:52.091Z,63.28
2023-04-06T19:38:04.993Z,63.59
2023-04-06T19:41:12.388Z,57.46
2023-04-06T19:44:18.413Z,57.68
2023-04-06T19:47:25.577Z,51.71
2023-04-06T19:50:31.644Z,53.47
2023-04-06T19:53:41.316Z,51.30
2023-04-06T19:56:48.252Z,50.15
2023-04-06T19:59:56.542Z,56.21
2023-04-06T20:03:03.129Z,59.20
2023-04-06T20:06:15.205Z,55.80
2023-04-06T20:09:24.734Z,53.17
2023-04-06T20:12:31.897Z,49.23
2023-04-06T20:15:38.273Z,51.89
2023-04-06T20:18:46.542Z,55.94
2023-04-06T20:21:52.524Z,62.58
2023-04-06T20:25:10.733Z,58.54
2023-04-06T20:28:24.198Z,60.14
2023-04-06T20:31:32.029Z,59.78
2023-04-06T20:34:38.723Z,63.41
2023-04-06T20:37:48.171Z,64.69
2023-04-06T20:41:00.141Z,65.37
2023-04-06T20:44:09.380Z,63.99
2023-04-06T20:47:15.424Z,67.24
2023-04-06T20:50:22.800Z,65.86
2023-04-06T20:53:28.883Z,63.57
2023-04-06T20:56:40.062Z,61.00
2023-04-06T20:59:48.209Z,56.16
2023-04-06T21:02:56.592Z,56.63
2023-04-06T21:06:02.933Z,52.82
2023-04-06T21:09:09.779Z,46.78
2023-04-06T21:12:19.971Z,48.28
2023-04-06T21:15:26.739Z,49.58
2023-04-06T21:18:34.579Z,48.52
2023-04-06T21:21:41.615Z,50.54
2023-04-06T21:24:47.893Z,57.45
2023-04-06T21:27:58.813Z,57.06
2023-04-06T21:31:11.072Z,57.77
2023-04-06T21:34:18.418Z,58.51
2023-04-06T21:37:24.834Z,49.65
2023-04-06T21:40:34.619Z,53.63
2023-04-06T21:43:43.546Z,52.59
2023-04-06T21:46:50.242Z,60.20
2023-04-06T21:49:56.145Z,56.12
2023-04-06T21:53:03.072Z,56.70
2023-04-06T21:56:09.538Z,58.46
2023-04-06T21:59:18.891Z,53.32
2023-04-06T22:02:32.635Z,56.20
2023-04-06T22:05:41.244Z,53.04
2023-04-06T22:08:49.568Z,54.16
2023-04-06T22:11:56.308Z,84.96
2023-04-06T22:15:04.971Z,57.34
2023-04-06T22:18:11.996Z,55.93
2023-04-06T22:21:18.036Z,53.45
2023-04-06T22:24:24.841Z,55.49
2023-04-06T22:27:31.142Z,54.57
2023-04-06T22:30:40.482Z,53.58
2023-04-06T22:33:46.631Z,54.37
2023-04-06T22:36:53.251Z,53.22
2023-04-06T22:39:59.182Z,51.35
2023-04-06T22:43:05.827Z,54.51
2023-04-06T22:46:14.361Z,52.71
2023-04-06T22:49:21.092Z,67.38
2023-04-06T22:52:27.278Z,72.54
2023-04-06T22:55:41.166Z,53.03
2023-04-06T22:58:47.368Z,52.62
2023-04-06T23:02:00.069Z,50.70
2023-04-06T23:05:13.290Z,49.40
2023-04-06T23:08:20.360Z,48.72
2023-04-06T23:11:26.249Z,49.14
2023-04-06T23:14:33.035Z,49.84
2023-04-06T23:17:42.009Z,48.11
2023-04-06T23:20:48.757Z,48.94
2023-04-06T23:23:54.610Z,48.57
2023-04-06T23:27:01.580Z,50.17
2023-04-06T23:30:08.903Z,48.91
2023-04-06T23:33:18.337Z,50.03
2023-04-06T23:36:24.313Z,49.07
2023-04-06T23:39:31.268Z,47.65
2023-04-06T23:42:37.190Z,46.79
2023-04-06T23:45:44.787Z,49.93
2023-04-06T23:48:53.487Z,49.33
2023-04-06T23:52:00.233Z,47.43
2023-04-06T23:55:11.438Z,47.44
2023-04-06T23:58:18.194Z,48.53
